Time;durP1;ratioP1;P1;durP2;ratioP2;P2;SDS_P1;SDS_P2;PMS_P1;PMS_P2;Temp;Humidity;BMP_temperature;BMP_pressure;BME280_temperature;BME280_humidity;BME280_pressure;Samples;Min_cycle;Max_cycle;Signal;HPM_P1;HPM_P2
2023/10/23 00:00:04;;;;;;;7.65;3.40;;;6.70;99.90;;;;;;5057028;28;20037;-49
2023/10/23 00:02:30;;;;;;;7.95;3.75;;;6.70;99.90;;;;;;5057098;28;20037;-46
2023/10/23 00:04:55;;;;;;;6.55;3.22;;;6.70;99.90;;;;;;5056691;28;20029;-46
2023/10/23 00:07:21;;;;;;;7.78;3.00;;;6.70;99.90;;;;;;5056716;28;20060;-49
2023/10/23 00:09:47;;;;;;;5.55;2.70;;;6.70;99.90;;;;;;5056993;28;20043;-49
2023/10/23 00:12:12;;;;;;;6.82;2.67;;;6.70;99.90;;;;;;5056851;28;20175;-48
2023/10/23 00:14:38;;;;;;;8.82;3.20;;;6.70;99.90;;;;;;5056927;28;20035;-49
2023/10/23 00:17:04;;;;;;;6.53;3.20;;;6.70;99.90;;;;;;5056715;28;20032;-48
2023/10/23 00:19:30;;;;;;;8.35;3.10;;;6.60;99.90;;;;;;5055624;28;20102;-48
2023/10/23 00:21:55;;;;;;;5.60;2.83;;;6.70;99.90;;;;;;5056597;28;20044;-49
2023/10/23 00:24:21;;;;;;;6.60;3.30;;;6.70;99.90;;;;;;5056278;28;20044;-50
2023/10/23 00:26:47;;;;;;;6.57;2.80;;;6.70;99.90;;;;;;5056547;28;20029;-49
2023/10/23 00:29:13;;;;;;;6.85;2.83;;;6.60;99.90;;;;;;5056421;28;20489;-49
2023/10/23 00:31:38;;;;;;;7.80;2.90;;;6.60;99.90;;;;;;5056478;28;20072;-45
2023/10/23 00:34:04;;;;;;;6.57;2.65;;;6.60;99.90;;;;;;5055182;28;20052;-47
2023/10/23 00:36:30;;;;;;;5.35;2.25;;;6.60;99.90;;;;;;5056080;28;20055;-45
2023/10/23 00:38:55;;;;;;;6.38;2.53;;;6.60;99.90;;;;;;5056140;28;20048;-47
2023/10/23 00:41:21;;;;;;;3.63;1.92;;;6.70;99.90;;;;;;5056630;28;20041;-49
2023/10/23 00:43:46;;;;;;;4.72;2.30;;;6.60;99.90;;;;;;5056191;28;20066;-51
2023/10/23 00:46:18;;;;;;;10.13;3.33;;;6.60;99.90;;;;;;5056155;28;20041;-48
2023/10/23 00:48:44;;;;;;;5.63;2.83;;;6.60;99.90;;;;;;5038726;28;20029;-51
2023/10/23 00:51:11;;;;;;;4.90;2.42;;;6.50;99.90;;;;;;5054947;28;20032;-49
2023/10/23 00:53:37;;;;;;;8.57;2.92;;;6.60;99.90;;;;;;5056028;28;20036;-48
2023/10/23 00:56:04;;;;;;;5.53;2.90;;;6.60;99.90;;;;;;5054916;28;20041;-48
2023/10/23 00:58:31;;;;;;;5.25;2.80;;;6.60;99.90;;;;;;5055864;28;20047;-47
2023/10/23 01:00:57;;;;;;;8.43;3.20;;;6.60;99.90;;;;;;5054885;28;20461;-49
2023/10/23 01:03:23;;;;;;;6.53;2.53;;;6.60;99.90;;;;;;5054902;28;20043;-48
2023/10/23 01:05:48;;;;;;;4.82;2.50;;;6.60;99.90;;;;;;5055628;28;20049;-49
2023/10/23 01:08:14;;;;;;;5.93;2.70;;;6.60;99.90;;;;;;5055351;28;20033;-48
2023/10/23 01:10:40;;;;;;;4.60;2.20;;;6.60;99.90;;;;;;5054771;28;20483;-49
2023/10/23 01:13:09;;;;;;;8.38;3.03;;;6.60;99.90;;;;;;5054531;28;20033;-49
2023/10/23 01:15:35;;;;;;;4.97;2.63;;;6.60;99.90;;;;;;5054419;28;20032;-51
2023/10/23 01:18:01;;;;;;;6.60;2.70;;;6.60;99.90;;;;;;5054501;28;20043;-49
2023/10/23 01:20:29;;;;;;;5.15;2.42;;;6.60;99.90;;;;;;5055478;28;20061;-49
2023/10/23 01:22:59;;;;;;;4.80;2.28;;;6.60;99.90;;;;;;5054389;28;20120;-49
2023/10/23 01:25:24;;;;;;;4.57;2.45;;;6.60;99.90;;;;;;5055368;28;20041;-49
2023/10/23 01:27:50;;;;;;;4.68;2.45;;;6.60;99.90;;;;;;5055624;28;20316;-48
2023/10/23 01:30:16;;;;;;;6.00;2.30;;;6.60;99.90;;;;;;5055436;28;20025;-49
2023/10/23 01:32:42;;;;;;;5.00;2.38;;;6.70;99.90;;;;;;5055302;28;20158;-45
2023/10/23 01:35:08;;;;;;;4.85;2.20;;;6.70;99.90;;;;;;5055112;28;20055;-48
2023/10/23 01:37:34;;;;;;;6.13;2.13;;;6.70;99.90;;;;;;5055251;28;20045;-49
2023/10/23 01:39:59;;;;;;;4.68;2.00;;;6.70;99.90;;;;;;5054769;28;20411;-47
2023/10/23 01:42:31;;;;;;;5.03;1.90;;;6.70;99.90;;;;;;5055244;28;20068;-49
2023/10/23 01:44:57;;;;;;;3.53;1.83;;;6.70;99.90;;;;;;5054926;28;20040;-47
2023/10/23 01:47:23;;;;;;;5.60;2.47;;;6.80;99.90;;;;;;5053370;28;20037;-48
2023/10/23 01:49:49;;;;;;;6.35;2.00;;;6.70;99.90;;;;;;5055307;28;20438;-49
2023/10/23 01:52:15;;;;;;;4.63;1.90;;;6.80;99.90;;;;;;5055038;28;20091;-48
2023/10/23 01:54:41;;;;;;;5.22;1.95;;;6.80;99.90;;;;;;5054752;28;20029;-48
2023/10/23 01:57:07;;;;;;;4.93;2.10;;;6.80;99.90;;;;;;5054839;28;20043;-49
2023/10/23 01:59:32;;;;;;;5.95;1.90;;;6.80;99.90;;;;;;5054898;28;20037;-49
2023/10/23 02:01:58;;;;;;;4.55;1.98;;;6.90;99.90;;;;;;5054789;28;20354;-49
2023/10/23 02:04:23;;;;;;;6.65;2.00;;;6.90;99.90;;;;;;5054783;28;20025;-49
2023/10/23 02:06:49;;;;;;;10.15;2.17;;;6.90;99.90;;;;;;5054492;28;20049;-49
2023/10/23 02:09:16;;;;;;;5.80;1.88;;;6.90;99.90;;;;;;5054634;28;20366;-49
2023/10/23 02:11:41;;;;;;;3.53;1.63;;;7.00;99.90;;;;;;5054350;28;20052;-48
2023/10/23 02:14:08;;;;;;;4.15;1.70;;;7.00;99.90;;;;;;5053614;28;20044;-49
2023/10/23 02:16:34;;;;;;;3.80;2.00;;;7.00;99.90;;;;;;5053538;28;20056;-49
2023/10/23 02:18:59;;;;;;;5.82;1.98;;;7.00;99.90;;;;;;5054460;28;20469;-49
2023/10/23 02:21:25;;;;;;;4.05;1.80;;;7.00;99.90;;;;;;5054765;28;20037;-48
2023/10/23 02:23:51;;;;;;;6.82;2.08;;;7.00;99.90;;;;;;5054670;28;20029;-49
2023/10/23 02:26:17;;;;;;;8.07;2.25;;;7.10;99.90;;;;;;5054266;28;20060;-49
2023/10/23 02:28:43;;;;;;;4.80;1.90;;;7.10;99.90;;;;;;5054670;28;20413;-48
2023/10/23 02:31:09;;;;;;;4.40;1.90;;;7.10;99.90;;;;;;5054946;28;20430;-48
2023/10/23 02:33:34;;;;;;;5.25;2.20;;;7.10;99.90;;;;;;5054532;28;20037;-48
2023/10/23 02:36:00;;;;;;;5.55;1.90;;;7.10;99.90;;;;;;5054554;28;20071;-48
2023/10/23 02:38:26;;;;;;;5.18;1.92;;;7.10;99.90;;;;;;5054221;28;20112;-49
2023/10/23 02:40:52;;;;;;;6.32;1.73;;;7.10;99.90;;;;;;5054125;28;20037;-49
2023/10/23 02:43:18;;;;;;;6.13;1.45;;;7.10;99.90;;;;;;5054044;28;20060;-49
2023/10/23 02:45:43;;;;;;;3.55;1.40;;;7.10;99.90;;;;;;5054529;28;20374;-49
2023/10/23 02:48:09;;;;;;;2.97;1.52;;;7.10;99.90;;;;;;5054740;28;20098;-49
2023/10/23 02:50:35;;;;;;;4.70;1.77;;;7.10;99.90;;;;;;5054542;28;20040;-49
2023/10/23 02:53:00;;;;;;;3.00;1.65;;;7.10;99.90;;;;;;5054363;28;20029;-50
2023/10/23 02:55:26;;;;;;;5.10;1.65;;;7.10;99.90;;;;;;5054051;28;20457;-48
2023/10/23 02:57:52;;;;;;;4.30;1.60;;;7.10;99.90;;;;;;5053266;28;20033;-49
2023/10/23 03:00:20;;;;;;;4.53;1.80;;;7.10;99.90;;;;;;5057908;28;20056;-47
2023/10/23 03:02:46;;;;;;;4.07;1.73;;;7.10;99.90;;;;;;5057886;28;20073;-49
2023/10/23 03:05:11;;;;;;;3.13;1.77;;;7.10;99.90;;;;;;5058115;28;20036;-48
2023/10/23 03:07:37;;;;;;;3.75;1.67;;;7.10;99.90;;;;;;5056897;28;20466;-49
2023/10/23 03:10:03;;;;;;;4.65;1.63;;;7.10;99.90;;;;;;5058110;28;20098;-49
2023/10/23 03:12:29;;;;;;;6.22;1.90;;;7.10;99.90;;;;;;5057631;28;20031;-48
2023/10/23 03:14:55;;;;;;;3.58;1.50;;;7.10;99.90;;;;;;5057934;28;20124;-46
2023/10/23 03:17:21;;;;;;;4.07;1.60;;;7.10;99.90;;;;;;5057808;28;20048;-46
2023/10/23 03:19:46;;;;;;;4.50;1.38;;;7.10;99.90;;;;;;5057913;28;20035;-46
2023/10/23 03:22:12;;;;;;;5.93;1.70;;;7.10;99.90;;;;;;5057711;28;20048;-46
2023/10/23 03:24:38;;;;;;;8.18;2.08;;;7.10;99.90;;;;;;5057734;28;20044;-45
2023/10/23 03:27:04;;;;;;;3.00;1.15;;;7.10;99.90;;;;;;5057306;28;20029;-46
2023/10/23 03:29:30;;;;;;;4.32;1.52;;;7.10;99.90;;;;;;5057390;28;20100;-46
2023/10/23 03:31:56;;;;;;;2.80;1.52;;;7.10;99.90;;;;;;5057694;28;20443;-46
2023/10/23 03:34:26;;;;;;;5.30;1.73;;;7.10;99.90;;;;;;5057333;28;20087;-45
2023/10/23 03:36:52;;;;;;;5.55;2.08;;;7.10;99.90;;;;;;5057744;28;20032;-46
2023/10/23 03:39:17;;;;;;;4.80;1.60;;;7.10;99.90;;;;;;5056349;28;20347;-49
2023/10/23 03:41:43;;;;;;;3.38;1.35;;;7.10;99.90;;;;;;5057050;28;20025;-47
2023/10/23 03:44:09;;;;;;;4.57;1.50;;;7.00;99.90;;;;;;5057573;28;20033;-48
2023/10/23 03:46:34;;;;;;;2.45;1.30;;;7.00;99.90;;;;;;5057319;28;20025;-49
2023/10/23 03:49:00;;;;;;;4.07;1.60;;;7.10;99.90;;;;;;5057309;28;20355;-49
2023/10/23 03:51:26;;;;;;;4.88;1.50;;;7.10;99.90;;;;;;5057210;28;20082;-49
2023/10/23 03:53:51;;;;;;;2.92;1.30;;;7.10;99.90;;;;;;5057283;28;20048;-50
2023/10/23 03:56:17;;;;;;;2.63;1.55;;;7.10;99.90;;;;;;5056120;28;20367;-49
2023/10/23 03:58:45;;;;;;;2.70;1.30;;;7.10;99.90;;;;;;5057123;28;20685;-49
2023/10/23 04:01:14;;;;;;;1.52;1.17;;;7.10;99.90;;;;;;5056767;28;20045;-49
2023/10/23 04:03:40;;;;;;;4.15;1.20;;;7.00;99.90;;;;;;5056978;28;20028;-48
2023/10/23 04:06:06;;;;;;;4.22;1.50;;;7.00;99.90;;;;;;5056772;28;20492;-49
2023/10/23 04:08:31;;;;;;;2.38;1.50;;;7.10;99.90;;;;;;5057112;28;20086;-49
2023/10/23 04:10:58;;;;;;;3.92;1.40;;;7.00;99.90;;;;;;5056098;28;20378;-46
2023/10/23 04:13:25;;;;;;;7.00;1.67;;;7.00;99.90;;;;;;5056357;28;20458;-45
2023/10/23 04:15:54;;;;;;;3.88;1.60;;;7.00;99.90;;;;;;5055402;28;20086;-49
2023/10/23 04:18:20;;;;;;;5.47;1.75;;;7.10;99.90;;;;;;5056947;28;20029;-49
2023/10/23 04:20:46;;;;;;;3.25;1.30;;;7.10;99.90;;;;;;5056732;28;20040;-48
2023/10/23 04:23:12;;;;;;;4.15;1.33;;;7.10;99.90;;;;;;5056466;28;20059;-49
2023/10/23 04:25:37;;;;;;;2.63;1.40;;;7.10;99.90;;;;;;5055571;28;20040;-49
2023/10/23 04:28:03;;;;;;;4.28;1.50;;;7.00;99.90;;;;;;5056700;28;20033;-47
2023/10/23 04:30:29;;;;;;;2.65;1.38;;;7.00;99.90;;;;;;5056166;28;20029;-45
2023/10/23 04:32:55;;;;;;;5.47;1.38;;;6.90;99.90;;;;;;5056357;28;20087;-46
2023/10/23 04:35:20;;;;;;;4.00;1.45;;;7.00;99.90;;;;;;5055388;28;20416;-45
2023/10/23 04:37:46;;;;;;;3.38;1.33;;;7.00;99.90;;;;;;5056539;28;20350;-46
2023/10/23 04:40:12;;;;;;;2.83;1.42;;;7.00;99.90;;;;;;5056475;28;20103;-47
2023/10/23 04:42:38;;;;;;;4.30;1.60;;;6.90;99.90;;;;;;5056276;28;20045;-49
2023/10/23 04:45:04;;;;;;;3.97;1.45;;;6.90;99.90;;;;;;5055933;28;20433;-48
2023/10/23 04:47:30;;;;;;;2.40;1.27;;;6.90;99.90;;;;;;5055743;28;20446;-47
2023/10/23 04:49:56;;;;;;;3.08;1.75;;;6.90;99.90;;;;;;5056419;28;20075;-46
2023/10/23 04:52:23;;;;;;;3.65;1.50;;;6.90;99.90;;;;;;5055738;28;20112;-46
2023/10/23 04:54:49;;;;;;;2.83;1.40;;;6.90;99.90;;;;;;5055899;28;20438;-48
2023/10/23 04:57:15;;;;;;;3.25;1.20;;;6.80;99.90;;;;;;5054998;28;20041;-48
2023/10/23 04:59:40;;;;;;;6.45;1.75;;;6.70;99.90;;;;;;5056078;28;20147;-47
2023/10/23 05:02:06;;;;;;;2.67;1.35;;;6.80;99.90;;;;;;5055947;28;20021;-48
2023/10/23 05:04:32;;;;;;;2.50;1.40;;;6.80;99.90;;;;;;5055877;28;20167;-48
2023/10/23 05:06:58;;;;;;;5.13;1.40;;;6.80;99.90;;;;;;5055630;28;20076;-49
2023/10/23 05:09:23;;;;;;;2.28;1.30;;;6.80;99.90;;;;;;5055724;28;20040;-48
2023/10/23 05:11:49;;;;;;;4.55;1.30;;;6.70;99.90;;;;;;5055896;28;20033;-50
2023/10/23 05:14:14;;;;;;;4.22;1.08;;;6.80;99.90;;;;;;5055805;28;20382;-50
2023/10/23 05:16:41;;;;;;;6.75;1.48;;;6.70;99.90;;;;;;5055292;28;20055;-50
2023/10/23 05:19:09;;;;;;;7.45;1.25;;;6.70;99.90;;;;;;5055783;28;20045;-49
2023/10/23 05:21:35;;;;;;;6.70;1.45;;;6.70;99.90;;;;;;5053905;28;20060;-50
2023/10/23 05:24:01;;;;;;;6.55;1.45;;;6.70;99.90;;;;;;5055113;28;20436;-49
2023/10/23 05:26:26;;;;;;;5.38;1.35;;;6.70;99.90;;;;;;5055624;28;20052;-46
2023/10/23 05:28:53;;;;;;;3.30;1.40;;;6.70;99.90;;;;;;5055587;28;20040;-49
2023/10/23 05:31:19;;;;;;;2.95;1.10;;;6.70;99.90;;;;;;5055624;28;20029;-50
2023/10/23 05:33:45;;;;;;;3.42;1.40;;;6.70;99.90;;;;;;5055542;28;20120;-49
2023/10/23 05:36:10;;;;;;;4.50;1.60;;;6.60;99.90;;;;;;5055416;28;20510;-49
2023/10/23 05:38:36;;;;;;;6.93;1.60;;;6.70;99.90;;;;;;5055231;28;20083;-49
2023/10/23 05:41:02;;;;;;;4.13;1.52;;;6.70;99.90;;;;;;5055597;28;20061;-49
2023/10/23 05:43:28;;;;;;;6.75;1.58;;;6.70;99.90;;;;;;5054999;28;20156;-49
2023/10/23 05:45:57;;;;;;;4.57;1.80;;;6.80;99.90;;;;;;5055115;28;20041;-50
2023/10/23 05:48:23;;;;;;;5.10;2.10;;;6.80;99.90;;;;;;5054794;28;20044;-49
2023/10/23 05:50:59;;;;;;;4.15;1.63;;;6.90;99.90;;;;;;5037295;28;20029;-50
2023/10/23 05:53:25;;;;;;;7.28;3.42;;;6.80;99.90;;;;;;5053867;28;20033;-49
2023/10/23 05:55:51;;;;;;;5.20;2.70;;;6.80;99.90;;;;;;5055076;28;20422;-51
2023/10/23 05:58:16;;;;;;;5.25;1.80;;;6.80;99.90;;;;;;5055005;28;20033;-49
2023/10/23 06:00:42;;;;;;;3.55;1.38;;;6.70;99.90;;;;;;5054752;28;20163;-49
2023/10/23 06:03:08;;;;;;;3.63;1.20;;;6.80;99.90;;;;;;5054849;28;20182;-46
2023/10/23 06:05:39;;;;;;;4.45;1.55;;;6.70;99.90;;;;;;5054567;28;20029;-46
2023/10/23 06:08:05;;;;;;;4.82;1.20;;;6.70;99.90;;;;;;5053563;28;20025;-49
2023/10/23 06:10:30;;;;;;;5.35;1.45;;;6.70;99.90;;;;;;5054995;28;20334;-49
2023/10/23 06:12:56;;;;;;;4.93;1.40;;;6.70;99.90;;;;;;5054940;28;20112;-49
2023/10/23 06:15:22;;;;;;;5.35;1.30;;;6.70;99.90;;;;;;5054744;28;20032;-49
2023/10/23 06:17:49;;;;;;;4.00;1.63;;;6.70;99.90;;;;;;5054720;28;20078;-49
2023/10/23 06:20:14;;;;;;;3.97;1.98;;;6.70;99.90;;;;;;5054702;28;20071;-49
2023/10/23 06:22:40;;;;;;;6.28;2.22;;;6.60;99.90;;;;;;5054505;28;20065;-49
2023/10/23 06:25:07;;;;;;;2.90;1.42;;;6.60;99.90;;;;;;5054637;28;20033;-48
2023/10/23 06:27:33;;;;;;;4.25;2.17;;;6.60;99.90;;;;;;5054542;28;20067;-49
2023/10/23 06:29:59;;;;;;;8.25;2.50;;;6.70;99.90;;;;;;5054633;28;20116;-49
2023/10/23 06:32:24;;;;;;;5.65;1.98;;;6.70;99.90;;;;;;5054755;28;20323;-49
2023/10/23 06:34:51;;;;;;;4.63;1.92;;;6.60;99.90;;;;;;5057556;28;20060;-50
2023/10/23 06:37:17;;;;;;;6.32;1.85;;;6.60;99.90;;;;;;5058466;28;20112;-50
2023/10/23 06:39:42;;;;;;;2.92;1.58;;;6.60;99.90;;;;;;5058745;28;20040;-49
2023/10/23 06:42:08;;;;;;;5.63;1.75;;;6.60;99.90;;;;;;5058466;28;20036;-50
2023/10/23 06:44:34;;;;;;;4.63;1.70;;;6.60;99.90;;;;;;5058423;28;20029;-49
2023/10/23 06:46:59;;;;;;;5.80;2.30;;;6.60;99.90;;;;;;5058299;28;20041;-49
2023/10/23 06:49:25;;;;;;;5.38;1.60;;;6.50;99.90;;;;;;5058445;28;20090;-47
2023/10/23 06:51:51;;;;;;;4.35;1.75;;;6.50;99.90;;;;;;5058540;28;20029;-50
2023/10/23 06:54:16;;;;;;;3.30;1.67;;;6.50;99.90;;;;;;5058263;28;20033;-50
2023/10/23 06:56:42;;;;;;;4.30;1.70;;;6.60;99.90;;;;;;5058142;28;20029;-49
2023/10/23 06:59:08;;;;;;;5.35;1.85;;;6.60;99.90;;;;;;5058477;28;20320;-49
2023/10/23 07:01:33;;;;;;;5.63;3.78;;;6.50;99.90;;;;;;5057918;28;20182;-48
2023/10/23 07:03:59;;;;;;;4.68;1.85;;;6.50;99.90;;;;;;5057973;28;20025;-48
2023/10/23 07:06:25;;;;;;;7.07;2.45;;;6.60;99.90;;;;;;5057371;28;20382;-46
2023/10/23 07:08:50;;;;;;;5.97;1.63;;;6.60;99.90;;;;;;5058103;28;20025;-46
2023/10/23 07:11:18;;;;;;;4.07;2.33;;;6.60;99.90;;;;;;5057470;28;20458;-46
2023/10/23 07:13:43;;;;;;;5.57;1.90;;;6.60;99.90;;;;;;5058050;28;20033;-48
2023/10/23 07:16:09;;;;;;;3.38;1.52;;;6.60;99.90;;;;;;5057902;28;20359;-46
2023/10/23 07:18:34;;;;;;;4.25;1.85;;;6.60;99.90;;;;;;5057768;28;20087;-47
2023/10/23 07:21:00;;;;;;;4.22;2.00;;;6.60;99.90;;;;;;5057413;28;20041;-48
2023/10/23 07:23:28;;;;;;;11.52;10.32;;;6.60;99.90;;;;;;5057563;28;20044;-49
2023/10/23 07:26:01;;;;;;;4.35;2.50;;;6.60;99.90;;;;;;5057634;28;20033;-48
2023/10/23 07:28:26;;;;;;;2.70;1.60;;;6.70;99.90;;;;;;5057357;28;20029;-49
2023/10/23 07:30:52;;;;;;;3.85;1.90;;;6.70;99.90;;;;;;5057261;28;20031;-49
2023/10/23 07:33:18;;;;;;;3.92;1.80;;;6.80;99.90;;;;;;5057362;28;20470;-47
2023/10/23 07:35:43;;;;;;;7.15;1.88;;;6.80;99.90;;;;;;5056952;28;20112;-49
2023/10/23 07:38:09;;;;;;;4.63;2.17;;;6.80;99.90;;;;;;5057102;28;20039;-49
2023/10/23 07:40:42;;;;;;;15.10;5.95;;;6.80;99.90;;;;;;5056728;28;20068;-50
2023/10/23 07:43:08;;;;;;;7.88;2.42;;;6.90;99.90;;;;;;5056923;28;20128;-49
2023/10/23 07:45:38;;;;;;;6.57;2.50;;;7.00;99.90;;;;;;5054656;28;20100;-49
2023/10/23 07:48:04;;;;;;;6.88;5.13;;;7.00;99.90;;;;;;5057041;28;20037;-49
2023/10/23 07:50:32;;;;;;;6.40;2.08;;;7.10;99.90;;;;;;5057110;28;20059;-48
2023/10/23 07:52:58;;;;;;;15.05;8.48;;;7.10;99.90;;;;;;5056717;28;20025;-50
2023/10/23 07:55:24;;;;;;;6.70;2.47;;;7.10;99.90;;;;;;5055660;28;20105;-46
2023/10/23 07:57:49;;;;;;;6.15;1.83;;;7.20;99.90;;;;;;5056584;28;20041;-46
2023/10/23 08:00:15;;;;;;;4.63;1.75;;;7.20;99.90;;;;;;5056855;28;20044;-49
2023/10/23 08:02:41;;;;;;;3.38;2.10;;;7.30;99.90;;;;;;5055298;28;20041;-49
2023/10/23 08:05:07;;;;;;;2.92;1.40;;;7.30;99.90;;;;;;5056115;28;20478;-50
2023/10/23 08:07:33;;;;;;;4.65;1.75;;;7.40;99.90;;;;;;5056474;28;20450;-49
2023/10/23 08:09:58;;;;;;;3.28;1.50;;;7.40;99.90;;;;;;5056923;28;20044;-48
2023/10/23 08:12:24;;;;;;;4.63;2.00;;;7.40;99.90;;;;;;5056357;28;20025;-50
2023/10/23 08:14:50;;;;;;;4.45;1.83;;;7.50;99.90;;;;;;5056408;28;20060;-50
2023/10/23 08:17:16;;;;;;;2.75;1.65;;;7.70;99.90;;;;;;5056539;28;20508;-46
2023/10/23 08:19:41;;;;;;;3.00;1.48;;;7.80;99.90;;;;;;5056555;28;20085;-49
2023/10/23 08:22:07;;;;;;;6.47;2.42;;;7.80;99.90;;;;;;5056522;28;20064;-46
2023/10/23 08:24:33;;;;;;;7.25;2.75;;;7.90;99.90;;;;;;5056318;28;20037;-50
2023/10/23 08:26:59;;;;;;;7.43;3.58;;;8.00;99.90;;;;;;5056594;28;20510;-46
2023/10/23 08:29:25;;;;;;;6.15;3.95;;;8.20;99.90;;;;;;5055390;28;20044;-47
2023/10/23 08:31:50;;;;;;;6.90;3.20;;;8.20;99.90;;;;;;5056800;28;20021;-49
2023/10/23 08:34:20;;;;;;;7.13;2.58;;;8.30;99.90;;;;;;5056249;28;20497;-50
2023/10/23 08:36:47;;;;;;;8.00;2.65;;;8.40;99.90;;;;;;5056092;28;20029;-50
2023/10/23 08:39:13;;;;;;;8.32;2.45;;;8.60;99.90;;;;;;5054788;28;20033;-50
2023/10/23 08:41:39;;;;;;;8.63;4.13;;;8.70;99.90;;;;;;5056257;28;20166;-47
2023/10/23 08:44:05;;;;;;;8.50;3.13;;;8.80;99.90;;;;;;5055536;28;20078;-51
2023/10/23 08:46:31;;;;;;;6.63;3.10;;;9.00;99.90;;;;;;5055170;28;20033;-49
2023/10/23 08:48:57;;;;;;;8.25;2.70;;;9.10;99.90;;;;;;5055023;28;20078;-49
2023/10/23 08:51:23;;;;;;;7.78;2.17;;;9.20;99.90;;;;;;5055777;28;20029;-52
2023/10/23 08:53:50;;;;;;;6.03;2.33;;;9.30;99.90;;;;;;5054745;28;20124;-47
2023/10/23 08:56:16;;;;;;;5.95;2.38;;;9.40;99.90;;;;;;5055832;28;20358;-50
2023/10/23 08:58:41;;;;;;;7.57;2.30;;;9.50;99.90;;;;;;5055759;28;20024;-55
2023/10/23 09:01:07;;;;;;;7.05;2.65;;;9.60;99.90;;;;;;5054474;28;20108;-51
2023/10/23 09:03:32;;;;;;;7.57;3.40;;;9.70;99.90;;;;;;5055713;28;20044;-51
2023/10/23 09:05:58;;;;;;;5.10;2.58;;;9.80;99.90;;;;;;5054195;28;20470;-48
2023/10/23 09:08:27;;;;;;;6.32;2.90;;;9.90;99.90;;;;;;5037930;28;20037;-51
2023/10/23 09:11:06;;;;;;;4.55;2.20;;;10.00;99.90;;;;;;5055539;28;20029;-50
2023/10/23 09:13:39;;;;;;;6.57;2.50;;;10.10;99.90;;;;;;5055561;28;20032;-48
2023/10/23 09:16:11;;;;;;;6.25;2.13;;;10.40;99.90;;;;;;5053823;28;20408;-50
2023/10/23 09:18:49;;;;;;;4.45;1.73;;;10.80;99.90;;;;;;5054004;28;20043;-50
2023/10/23 09:21:15;;;;;;;8.13;2.75;;;10.90;99.90;;;;;;5053999;28;20068;-51
2023/10/23 09:24:07;;;;;;;6.90;3.22;;;11.00;99.90;;;;;;5055246;28;20037;-48
2023/10/23 09:26:33;;;;;;;10.27;4.10;;;11.10;99.90;;;;;;5054982;28;20163;-48
2023/10/23 09:28:59;;;;;;;12.32;5.50;;;11.10;99.90;;;;;;5053740;28;20522;-48
2023/10/23 09:31:24;;;;;;;13.30;6.28;;;11.10;99.90;;;;;;5053837;28;20469;-50
2023/10/23 09:33:51;;;;;;;12.35;5.85;;;11.20;99.90;;;;;;5055001;28;20110;-47
2023/10/23 09:36:16;;;;;;;14.05;5.57;;;11.20;99.90;;;;;;5055102;28;20033;-51
2023/10/23 09:38:43;;;;;;;11.38;5.35;;;11.30;99.90;;;;;;5054763;28;20039;-49
2023/10/23 09:41:12;;;;;;;14.27;6.22;;;11.40;99.90;;;;;;5054766;28;20044;-50
2023/10/23 09:43:47;;;;;;;11.90;5.72;;;11.60;99.90;;;;;;5054801;28;20033;-52
2023/10/23 09:46:13;;;;;;;10.68;5.82;;;11.80;99.90;;;;;;5054964;28;20037;-52
2023/10/23 09:48:40;;;;;;;13.10;5.30;;;12.20;99.90;;;;;;5053162;28;20025;-47
2023/10/23 09:51:06;;;;;;;7.68;3.88;;;12.40;99.90;;;;;;5036480;28;20021;-50
2023/10/23 09:53:32;;;;;;;10.00;1.60;;;12.50;99.90;;;;;;5054438;28;20366;-51
2023/10/23 09:55:57;;;;;;;4.53;1.63;;;12.90;99.90;;;;;;5036892;28;20044;-51
2023/10/23 09:58:23;;;;;;;4.32;1.85;;;13.20;99.90;;;;;;5053336;28;20062;-49
2023/10/23 10:00:48;;;;;;;2.45;1.10;;;13.50;99.90;;;;;;5036826;28;20168;-51
2023/10/23 10:03:17;;;;;;;2.83;1.15;;;13.60;99.90;;;;;;5054475;28;20376;-50
2023/10/23 10:06:02;;;;;;;3.30;1.20;;;13.70;99.90;;;;;;5054394;28;20087;-50
2023/10/23 10:08:29;;;;;;;5.10;1.40;;;13.70;99.90;;;;;;5052887;28;20105;-51
2023/10/23 10:10:55;;;;;;;4.50;1.17;;;13.70;99.90;;;;;;5053425;28;20067;-49
2023/10/23 10:13:21;;;;;;;2.85;1.50;;;13.60;99.90;;;;;;5053462;28;20029;-50
2023/10/23 10:15:46;;;;;;;4.03;2.67;;;13.60;99.90;;;;;;5054591;28;20044;-48
2023/10/23 10:18:16;;;;;;;3.42;1.25;;;13.60;99.90;;;;;;5053471;28;20041;-50
2023/10/23 10:20:43;;;;;;;1.45;1.13;;;13.60;99.90;;;;;;5053031;28;20029;-51
2023/10/23 10:23:12;;;;;;;4.95;1.70;;;13.60;99.90;;;;;;5036805;28;20033;-49
2023/10/23 10:25:39;;;;;;;5.35;1.80;;;13.60;99.90;;;;;;5037341;28;20029;-51
2023/10/23 10:28:06;;;;;;;4.15;1.65;;;13.60;99.90;;;;;;5054563;28;20407;-50
2023/10/23 10:30:40;;;;;;;4.43;1.42;;;13.60;99.90;;;;;;5054252;28;20025;-49
2023/10/23 10:33:10;;;;;;;3.58;1.55;;;13.70;99.90;;;;;;5054095;28;20036;-50
2023/10/23 10:35:36;;;;;;;3.17;1.40;;;13.70;99.90;;;;;;5054381;28;20056;-48
2023/10/23 10:38:03;;;;;;;3.63;1.60;;;13.70;99.90;;;;;;5054395;28;20473;-49
2023/10/23 10:40:50;;;;;;;4.70;1.30;;;13.70;99.90;;;;;;5054078;28;20037;-50
2023/10/23 10:43:21;;;;;;;2.25;1.10;;;13.70;99.90;;;;;;5038981;28;20037;-51
2023/10/23 10:45:47;;;;;;;6.40;1.63;;;13.70;99.90;;;;;;5054243;28;20071;-51
2023/10/23 10:48:15;;;;;;;3.35;1.48;;;13.70;99.90;;;;;;5054487;28;20057;-49
2023/10/23 10:50:41;;;;;;;5.70;1.40;;;13.70;99.90;;;;;;5052995;28;20049;-50
2023/10/23 10:53:07;;;;;;;3.33;1.50;;;13.80;99.90;;;;;;5052847;28;20358;-51
2023/10/23 10:55:34;;;;;;;5.25;1.35;;;13.80;99.90;;;;;;5054479;28;20033;-51
2023/10/23 10:58:00;;;;;;;2.83;1.20;;;13.80;99.90;;;;;;5053979;28;20056;-50
2023/10/23 11:00:33;;;;;;;3.75;1.20;;;13.80;99.90;;;;;;5052895;28;20304;-51
2023/10/23 11:02:58;;;;;;;6.25;2.20;;;13.80;99.90;;;;;;5052155;28;20080;-52
2023/10/23 11:05:24;;;;;;;5.13;1.67;;;13.80;99.90;;;;;;5052196;28;20044;-50
2023/10/23 11:07:51;;;;;;;5.28;1.80;;;13.80;99.90;;;;;;5052622;28;20099;-50
2023/10/23 11:10:17;;;;;;;5.82;1.60;;;13.80;99.90;;;;;;5052772;28;20036;-51
2023/10/23 11:12:43;;;;;;;9.65;2.53;;;13.90;99.90;;;;;;5053309;28;20040;-50
2023/10/23 11:15:09;;;;;;;5.55;1.90;;;13.90;99.90;;;;;;5053553;28;20029;-52
2023/10/23 11:17:35;;;;;;;2.88;1.75;;;14.00;99.90;;;;;;5052569;28;20033;-53
2023/10/23 11:20:08;;;;;;;5.18;1.77;;;14.00;99.90;;;;;;5052313;28;20051;-52
2023/10/23 11:22:34;;;;;;;3.55;1.70;;;14.00;99.90;;;;;;5056880;28;20120;-52
2023/10/23 11:25:00;;;;;;;5.28;2.05;;;14.10;99.90;;;;;;5022952;28;20032;-50
2023/10/23 11:27:25;;;;;;;6.50;1.65;;;14.10;99.90;;;;;;5057013;28;20339;-52
2023/10/23 11:29:51;;;;;;;4.93;1.70;;;14.10;99.90;;;;;;5057440;28;20170;-51
2023/10/23 11:32:17;;;;;;;2.80;1.40;;;14.20;99.90;;;;;;5057267;28;20112;-50
2023/10/23 11:34:43;;;;;;;3.63;1.35;;;14.20;99.90;;;;;;5056452;28;20033;-52
2023/10/23 11:37:10;;;;;;;5.90;1.60;;;14.20;99.90;;;;;;5055524;28;20036;-51
2023/10/23 11:39:36;;;;;;;4.90;1.60;;;14.20;99.90;;;;;;5039188;28;20142;-51
2023/10/23 11:42:02;;;;;;;4.55;1.40;;;14.30;99.90;;;;;;5055774;28;20024;-51
2023/10/23 11:44:29;;;;;;;6.20;1.98;;;14.30;99.90;;;;;;5055035;28;20044;-51
2023/10/23 11:46:59;;;;;;;2.75;1.10;;;14.40;99.90;;;;;;5055592;28;20025;-51
2023/10/23 11:49:24;;;;;;;1.30;1.03;;;14.50;99.90;;;;;;5056290;28;20121;-51
2023/10/23 11:51:51;;;;;;;5.55;1.15;;;14.50;99.90;;;;;;5056911;28;20166;-51
2023/10/23 11:54:19;;;;;;;4.18;2.00;;;14.70;99.90;;;;;;5055207;28;20060;-50
2023/10/23 11:56:45;;;;;;;3.60;1.40;;;14.70;99.90;;;;;;5055225;28;20033;-51
2023/10/23 11:59:18;;;;;;;6.85;2.85;;;14.80;99.90;;;;;;5056499;28;20044;-49
2023/10/23 12:01:44;;;;;;;4.07;1.30;;;14.90;99.90;;;;;;5056807;28;20382;-48
2023/10/23 12:04:10;;;;;;;4.60;1.50;;;15.00;99.90;;;;;;5056506;28;20065;-50
2023/10/23 12:06:37;;;;;;;6.55;2.10;;;15.10;99.90;;;;;;5056084;28;20138;-52
2023/10/23 12:09:04;;;;;;;5.15;1.40;;;15.20;99.90;;;;;;5056131;28;20072;-49
2023/10/23 12:11:29;;;;;;;5.65;1.50;;;15.30;99.90;;;;;;5056492;28;20400;-51
2023/10/23 12:13:57;;;;;;;6.30;2.80;;;15.40;99.90;;;;;;5056627;28;20041;-49
2023/10/23 12:16:22;;;;;;;5.15;1.77;;;15.50;99.90;;;;;;5055245;28;20033;-50
2023/10/23 12:18:48;;;;;;;2.90;1.20;;;15.60;99.90;;;;;;5056481;28;20044;-49
2023/10/23 12:21:14;;;;;;;3.10;1.45;;;15.60;99.90;;;;;;5056267;28;20045;-51
2023/10/23 12:23:40;;;;;;;5.70;1.70;;;15.60;99.90;;;;;;5038495;28;20091;-48
2023/10/23 12:26:06;;;;;;;4.40;1.40;;;15.70;99.90;;;;;;5055143;28;20036;-52
2023/10/23 12:28:32;;;;;;;6.15;1.52;;;15.70;99.90;;;;;;5055965;28;20092;-51
2023/10/23 12:30:58;;;;;;;5.38;1.80;;;15.70;99.90;;;;;;5055484;28;20404;-50
2023/10/23 12:33:24;;;;;;;5.20;1.60;;;15.70;99.90;;;;;;5055141;28;20049;-49
2023/10/23 12:35:50;;;;;;;4.25;1.33;;;15.70;99.90;;;;;;5056027;28;20385;-52
2023/10/23 12:38:16;;;;;;;3.88;1.15;;;15.70;99.90;;;;;;5054800;28;20041;-48
2023/10/23 12:40:43;;;;;;;5.13;1.20;;;15.70;99.90;;;;;;5055844;28;20033;-50
2023/10/23 12:43:10;;;;;;;4.80;1.42;;;15.80;99.90;;;;;;5054645;28;20043;-51
2023/10/23 12:45:35;;;;;;;2.85;1.20;;;15.80;99.90;;;;;;5054164;28;20114;-51
2023/10/23 12:48:01;;;;;;;3.40;1.15;;;15.90;99.90;;;;;;5055736;28;20052;-51